Flight Track Log - Related Links

Times and Time Zones

All times are in EDT time to prevent confusion due to time zone crossing. See the KAP550 flight status page for this flight to view local times or setup timezone preferences in your user account.

Time Position Orientation Groundspeed Altitude Reporting Facility
EDT Latitude Longitude Course Direction KTS MPH feet Rate Location/Type
Thu 07:18:20 AM 44.7131 -74.7625 160° South 150 173 5,100  Level Boston Center
Thu 07:19:20 AM 44.6781 -74.7375 153° Southeast 150 173 5,500 250 Climbing Boston Center
Thu 07:20:20 AM 44.6367 -74.7214 165° South 150 173 5,600 50 Climbing Boston Center
Thu 07:21:20 AM 44.5914 -74.6964 159° South 161 185 5,600  Level Boston Center
Thu 07:22:00 AM 44.7124 -74.7312 160° South  Level FlightAware Approximate
Thu 07:22:20 AM 44.5458 -74.6742 161° South 167 192 5,600  Level Boston Center
Thu 07:23:00 AM 44.6721 -74.7110 160° South  Level FlightAware Approximate
Thu 07:23:20 AM 44.5025 -74.6550 162° South 167 192 5,600  Level Boston Center
Thu 07:24:20 AM 44.4572 -74.6303 159° South 167 192 5,600  Level Boston Center
Thu 07:25:20 AM 44.4117 -74.6081 161° South 167 192 5,600  Level Boston Center
Thu 07:26:20 AM 44.3683 -74.5892 163° South 165 190 5,600  Level Boston Center
Thu 07:27:20 AM 44.3311 -74.5703 160° South 165 190 5,600  Level Boston Center
Thu 07:28:20 AM 44.2858 -74.5483 161° South 165 190 5,600  Level Boston Center
Thu 07:29:20 AM 44.2403 -74.5267 161° South 165 190 5,600  Level Boston Center
Thu 07:30:20 AM 44.1969 -74.5019 158° South 165 190 5,600 -50 Level Boston Center
Thu 07:31:20 AM 44.1494 -74.4800 162° South 165 190 5,500 -50 Descending Boston Center
Thu 07:32:20 AM 44.1061 -74.4581 160° South 171 197 5,500  Level Boston Center
Thu 07:33:20 AM 44.0564 -74.4364 163° South 176 203 5,500  Level Boston Center
Thu 07:34:20 AM 44.0131 -74.4147 160° South 176 203 5,500  Level Boston Center
Thu 07:35:20 AM 43.9656 -74.3900 159° South 176 203 5,500 100 Level Boston Center
Thu 07:36:20 AM 43.9200 -74.3683 161° South 176 203 5,700 100 Climbing Boston Center
Thu 07:37:20 AM 43.8725 -74.3439 160° South 176 203 5,700  Level Boston Center
Thu 07:38:20 AM 43.8250 -74.3222 162° South 182 209 5,700  Level Boston Center
Thu 07:39:20 AM 43.7775 -74.2978 160° South 182 209 5,700  Level Boston Center
Thu 07:40:20 AM 43.7278 -74.2731 160° South 182 209 5,700  Level Boston Center
Thu 07:41:20 AM 43.6761 -74.2486 161° South 187 215 5,700  Level Boston Center
Thu 07:42:20 AM 43.6244 -74.2242 161° South 187 215 5,700  Level Boston Center
Thu 07:43:20 AM 43.5769 -74.1997 160° South 187 215 5,700  Level Boston Center
Thu 07:44:20 AM 43.5250 -74.1753 161° South 187 215 5,700  Level Boston Center
Thu 07:45:20 AM 43.4756 -74.1539 163° South 187 215 5,700  Level Boston Center
Thu 07:46:20 AM 43.4278 -74.1297 160° South 187 215 5,700 -57 Level Boston Center
Thu 07:47:05 AM 43.3864 -74.1086 160° South 184 212 5,600 -100 Descending Boston Center
Thu 07:47:20 AM 43.3719 -74.1053 170° South 187 215 5,600  Level Boston Center
Thu 07:47:54 AM 43.3450 -74.0931 162° South 185 213 5,600  Level Boston Center
Thu 07:48:20 AM 43.3286 -74.0814 153° Southeast 187 215 5,600  Level Boston Center
Thu 07:48:55 AM 43.2975 -74.0661 160° South 192 221 5,600  Level Boston Center
Thu 07:49:20 AM 43.2725 -74.0542 161° South 187 215 5,600  Level Boston Center
Thu 07:49:55 AM 43.2458 -74.0419 162° South 191 220 5,600 -100 Level Boston Center
Thu 07:50:20 AM 43.2292 -74.0331 159° South 187 215 5,500 -436 Descending Boston Center
Thu 07:50:50 AM 43.1981 -74.0181 161° South 198 228 5,200 -400 Descending Boston Center
Thu 07:51:20 AM 43.1711 -74.0058 162° South 194 223 5,100 -295 Descending Boston Center
Thu 07:51:51 AM 43.1442 -73.9908 158° South 204 235 4,900 -400 Descending Boston Center
Thu 07:52:20 AM 43.1172 -73.9789 162° South 204 235 4,700 -455 Descending Boston Center
Thu 07:52:57 AM 43.0864 -73.9639 160° South 205 236 4,400 -400 Descending Boston Center
Thu 07:53:20 AM 43.0656 -73.9519 157° South 209 241 4,300 -327 Descending Boston Center
Thu 07:53:52 AM 43.0367 -73.9428 167° South 203 234 4,100 -300 Descending Boston Center
Thu 07:54:20 AM 43.0117 -73.9336 165° South 197 227 4,000 -295 Descending Boston Center
Thu 07:54:53 AM 42.9847 -73.9272 170° South 192 221 3,800 -400 Descending Boston Center
Thu 07:55:20 AM 42.9597 -73.9153 161° South 197 227 3,600 -300 Descending Boston Center
Thu 07:55:53 AM 42.9308 -73.9061 167° South 192 221 3,500 -100 Descending Boston Center
Thu 07:56:20 AM 42.9078 -73.9000 169° South 197 227 3,500 -295 Level Boston Center
Thu 07:56:54 AM 42.8808 -73.8908 166° South 182 209 3,200 -400 Descending Boston Center
Thu 07:57:20 AM 42.8683 -73.8878 170° South 197 227 3,100 -400 Descending Boston Center
Thu 07:57:54 AM 42.8289 -73.8783 170° South 188 216 2,800 -100 Descending Boston Center
Thu 07:58:20 AM 42.8061 -73.8692 164° South 197 227 3,000 -327 Climbing Boston Center
Thu 07:58:49 AM 42.7853 -73.8744 191° South 179 206 2,500 -667 Descending Boston Center
Thu 07:59:50 AM 42.7372 -73.8733 179° South 167 192 2,000 -347 Descending Boston Center
Thu 08:00:50 AM 42.7000 -73.8639 169° South 127 146 1,800 -347 Descending Boston Center
Thu 08:01:51 AM 42.6881 -73.8128 108° East 136 157 1,300 -469 Descending Boston Center
Thu 08:02:58 AM 42.7194 -73.8078 North 102 117 800 -448 Descending Boston Center
Thu 08:04:00 AM 42.7491 -73.8020 22° Northeast  Level Estimated
Thu 08:11:00 AM 42.7491 -73.8020 170° South  Level Estimated
Thu 08:12:00 AM 42.7491 -73.8020 170° South  Level Estimated
Thu 08:13:00 AM 42.7491 -73.8020 170° South  Level Estimated
Thu 08:14:00 AM 42.7491 -73.8020 170° South  Level Estimated

Login

Don't have an account? Register now (free) for customized features, flight alerts, and more!